Cypress, Louisiana
Current Conditions -  °F | °C
As of 8:15 AM on Thursday 18 Dec 2014 (Local Time) from KIER Reporting Station
Overcast Overcast  
Wind Chill: 45°   Ceiling: 2000
Heat Index: 47°   Visibility: 10mi
Dew Point: 45°   Wind: 5mph
Humidity: 93%   Direction: 20°NNE
Pressure: 30.18"   Gusts: NA
Location:  31.7831°N, 93.1496°W
Report Text: KIER 181415Z AUTO 02004KT 10SM OVC020 08/07 A3018 RMK AO2 T00820072
Loading
Personal Weather Stations






























Interactive Weather Map New forecast layout! Learn more

10-Day Weather Forecast

Advertisements
Track Severe Weather on mobile